Time,TemperatureF,DewpointF,PressureIn,WindDirection,WindDirectionDegrees,WindSpeedMPH,WindSpeedGustMPH,Humidity,HourlyPrecipIn,Conditions,Clouds,dailyrainin,SoftwareType,DateUTC
2013-03-05 00:00:00,27.7,22.9,30.35,North,1,0.0,0.0,82,0.00,CLR,SKC,0.00,WeatherDisplay:10.37,2013-03-04 23:00:00,
2013-03-05 00:05:00,27.5,22.7,30.36,North,1,0.0,0.0,82,0.00,CLR,SKC,0.00,WeatherDisplay:10.37,2013-03-04 23:05:00,
2013-03-05 00:10:00,27.5,22.7,30.36,North,1,0.0,0.0,82,0.00,CLR,SKC,0.00,WeatherDisplay:10.37,2013-03-04 23:10:00,
2013-03-05 00:15:00,27.5,22.7,30.36,North,1,0.0,0.0,82,0.00,CLR,SKC,0.00,WeatherDisplay:10.37,2013-03-04 23:15:00,
2013-03-05 00:20:00,27.1,22.4,30.36,North,1,0.0,0.0,82,0.00,CLR,SKC,0.00,WeatherDisplay:10.37,2013-03-04 23:20:00,
2013-03-05 00:25:00,27.1,22.4,30.36,North,1,0.0,0.0,82,0.00,CLR,SKC,0.00,WeatherDisplay:10.37,2013-03-04 23:25:00,
2013-03-05 00:30:00,27.0,22.2,30.36,North,1,0.0,0.0,82,0.00,CLR,SKC,0.00,WeatherDisplay:10.37,2013-03-04 23:30:00,
2013-03-05 00:35:00,26.8,22.0,30.36,North,1,0.0,0.0,82,0.00,CLR,SKC,0.00,WeatherDisplay:10.37,2013-03-04 23:35:00,
2013-03-05 00:40:00,26.8,22.0,30.37,North,1,0.0,0.0,82,0.00,CLR,SKC,0.00,WeatherDisplay:10.37,2013-03-04 23:40:00,
2013-03-05 00:45:00,26.8,22.0,30.37,North,1,0.0,0.0,82,0.00,CLR,SKC,0.00,WeatherDisplay:10.37,2013-03-04 23:45:00,
2013-03-05 00:50:00,27.0,22.5,30.37,North,1,0.0,0.0,83,0.00,CLR,SKC,0.00,WeatherDisplay:10.37,2013-03-04 23:50:00,
2013-03-05 00:55:00,28.2,23.7,30.37,North,1,0.0,0.0,83,0.00,CLR,SKC,0.00,WeatherDisplay:10.37,2013-03-04 23:55:00,
2013-03-05 01:00:00,28.8,24.2,30.37,North,1,0.0,0.0,83,0.00,CLR,SKC,0.00,WeatherDisplay:10.37,2013-03-05 00:00:00,
2013-03-05 01:05:00,29.5,24.7,30.38,North,1,0.0,0.0,82,0.00,CLR,SKC,0.00,WeatherDisplay:10.37,2013-03-05 00:05:00,
2013-03-05 01:10:00,30.0,24.9,30.37,North,1,0.0,0.0,81,0.00,CLR,SKC,0.00,WeatherDisplay:10.37,2013-03-05 00:10:00,
2013-03-05 01:15:00,30.6,25.4,30.37,North,1,0.0,0.0,81,0.00,CLR,SKC,0.00,WeatherDisplay:10.37,2013-03-05 00:15:00,
2013-03-05 01:20:00,30.7,25.6,30.37,North,1,0.0,0.0,81,0.00,CLR,SKC,0.00,WeatherDisplay:10.37,2013-03-05 00:20:00,
2013-03-05 01:25:00,30.9,25.5,30.37,North,1,0.0,0.0,80,0.00,CLR,SKC,0.00,WeatherDisplay:10.37,2013-03-05 00:25:00,
2013-03-05 01:30:00,31.1,25.3,30.37,North,1,0.0,0.0,79,0.00,CLR,SKC,0.00,WeatherDisplay:10.37,2013-03-05 00:30:00,
2013-03-05 01:35:00,31.1,25.0,30.37,North,1,0.0,0.0,78,0.00,CLR,SKC,0.00,WeatherDisplay:10.37,2013-03-05 00:35:00,
2013-03-05 01:40:00,31.1,25.0,30.36,North,1,0.0,0.0,78,0.00,CLR,SKC,0.00,WeatherDisplay:10.37,2013-03-05 00:40:00,
2013-03-05 01:45:00,30.9,24.9,30.37,North,1,0.0,0.0,78,0.00,CLR,SKC,0.00,WeatherDisplay:10.37,2013-03-05 00:45:00,
2013-03-05 01:50:00,30.9,24.9,30.37,North,1,0.0,0.0,78,0.00,CLR,SKC,0.00,WeatherDisplay:10.37,2013-03-05 00:50:00,
2013-03-05 01:55:00,30.7,24.7,30.36,North,1,0.0,0.0,78,0.00,CLR,SKC,0.00,WeatherDisplay:10.37,2013-03-05 00:55:00,
2013-03-05 02:00:00,30.6,24.5,30.36,North,1,0.0,0.0,78,0.00,CLR,SKC,0.00,WeatherDisplay:10.37,2013-03-05 01:00:00,
2013-03-05 02:05:00,30.6,24.5,30.36,North,1,0.0,0.0,78,0.00,CLR,SKC,0.00,WeatherDisplay:10.37,2013-03-05 01:05:00,
2013-03-05 02:10:00,30.4,24.3,30.36,North,1,0.0,0.0,78,0.00,CLR,SKC,0.00,WeatherDisplay:10.37,2013-03-05 01:10:00,
2013-03-05 02:15:00,30.0,24.0,30.36,North,1,0.0,0.0,78,0.00,CLR,SKC,0.00,WeatherDisplay:10.37,2013-03-05 01:15:00,
2013-03-05 02:20:00,30.0,24.0,30.36,North,1,0.0,0.0,78,0.00,CLR,SKC,0.00,WeatherDisplay:10.37,2013-03-05 01:20:00,
2013-03-05 02:25:00,29.8,23.8,30.36,North,1,0.0,0.0,78,0.00,CLR,SKC,0.00,WeatherDisplay:10.37,2013-03-05 01:25:00,
2013-03-05 02:30:00,29.8,23.8,30.36,North,1,0.0,0.0,78,0.00,CLR,SKC,0.00,WeatherDisplay:10.37,2013-03-05 01:30:00,
2013-03-05 02:35:00,29.7,23.6,30.36,North,1,0.0,0.0,78,0.00,CLR,SKC,0.00,WeatherDisplay:10.37,2013-03-05 01:35:00,
2013-03-05 02:40:00,29.1,22.8,30.36,North,1,0.0,0.0,77,0.00,CLR,SKC,0.00,WeatherDisplay:10.37,2013-03-05 01:40:00,
2013-03-05 02:45:00,28.9,22.9,30.35,North,1,0.0,0.0,78,0.00,CLR,SKC,0.00,WeatherDisplay:10.37,2013-03-05 01:45:00,
2013-03-05 02:50:00,28.6,22.6,30.36,North,1,0.0,0.0,78,0.00,CLR,SKC,0.00,WeatherDisplay:10.37,2013-03-05 01:50:00,
2013-03-05 02:55:00,28.2,22.2,30.36,North,1,0.0,0.0,78,0.00,CLR,SKC,0.00,WeatherDisplay:10.37,2013-03-05 01:55:00,
2013-03-05 03:00:00,28.0,22.4,30.36,North,1,0.0,0.0,79,0.00,CLR,SKC,0.00,WeatherDisplay:10.37,2013-03-05 02:00:00,
2013-03-05 03:05:00,28.0,22.4,30.35,North,1,0.0,0.0,79,0.00,CLR,SKC,0.00,WeatherDisplay:10.37,2013-03-05 02:05:00,
2013-03-05 03:10:00,28.2,22.8,30.36,North,1,0.0,0.0,80,0.00,CLR,SKC,0.00,WeatherDisplay:10.37,2013-03-05 02:10:00,
2013-03-05 03:15:00,28.2,22.8,30.36,North,1,0.0,0.0,80,0.00,CLR,SKC,0.00,WeatherDisplay:10.37,2013-03-05 02:15:00,
2013-03-05 03:20:00,28.2,22.8,30.35,North,1,0.0,0.0,80,0.00,CLR,SKC,0.00,WeatherDisplay:10.37,2013-03-05 02:20:00,
2013-03-05 03:25:00,28.0,22.7,30.36,North,1,0.0,0.0,80,0.00,CLR,SKC,0.00,WeatherDisplay:10.37,2013-03-05 02:25:00,
2013-03-05 03:30:00,28.0,22.7,30.37,North,1,0.0,0.0,80,0.00,CLR,SKC,0.00,WeatherDisplay:10.37,2013-03-05 02:30:00,
2013-03-05 03:35:00,27.7,22.3,30.36,North,1,0.0,0.0,80,0.00,CLR,SKC,0.00,WeatherDisplay:10.37,2013-03-05 02:35:00,
2013-03-05 03:40:00,27.3,22.0,30.36,North,1,0.0,0.0,80,0.00,CLR,SKC,0.00,WeatherDisplay:10.37,2013-03-05 02:40:00,
2013-03-05 03:45:00,27.1,21.8,30.37,North,1,0.0,0.0,80,0.00,CLR,SKC,0.00,WeatherDisplay:10.37,2013-03-05 02:45:00,
2013-03-05 03:50:00,27.1,21.8,30.37,North,1,0.0,0.0,80,0.00,CLR,SKC,0.00,WeatherDisplay:10.37,2013-03-05 02:50:00,
2013-03-05 03:55:00,27.0,21.6,30.37,North,1,0.0,0.0,80,0.00,CLR,SKC,0.00,WeatherDisplay:10.37,2013-03-05 02:55:00,
2013-03-05 04:00:00,26.8,21.7,30.36,North,1,0.0,0.0,81,0.00,CLR,SKC,0.00,WeatherDisplay:10.37,2013-03-05 03:00:00,
2013-03-05 04:05:00,26.6,21.6,30.36,North,1,0.0,0.0,81,0.00,CLR,SKC,0.00,WeatherDisplay:10.37,2013-03-05 03:05:00,
2013-03-05 04:10:00,26.4,21.4,30.37,North,1,0.0,0.0,81,0.00,CLR,SKC,0.00,WeatherDisplay:10.37,2013-03-05 03:10:00,
2013-03-05 04:15:00,26.4,21.4,30.36,North,1,0.0,0.0,81,0.00,CLR,SKC,0.00,WeatherDisplay:10.37,2013-03-05 03:15:00,
2013-03-05 04:20:00,26.4,21.7,30.36,North,1,0.0,0.0,82,0.00,CLR,SKC,0.00,WeatherDisplay:10.37,2013-03-05 03:20:00,
2013-03-05 04:25:00,26.4,21.4,30.36,North,1,0.0,0.0,81,0.00,CLR,SKC,0.00,WeatherDisplay:10.37,2013-03-05 03:25:00,
2013-03-05 04:30:00,26.4,21.4,30.36,North,1,0.0,0.0,81,0.00,CLR,SKC,0.00,WeatherDisplay:10.37,2013-03-05 03:30:00,
2013-03-05 04:35:00,26.4,21.4,30.36,North,1,0.0,0.0,81,0.00,CLR,SKC,0.00,WeatherDisplay:10.37,2013-03-05 03:35:00,
2013-03-05 04:40:00,26.4,21.7,30.36,North,1,0.0,0.0,82,0.00,CLR,SKC,0.00,WeatherDisplay:10.37,2013-03-05 03:40:00,
2013-03-05 04:45:00,26.6,21.8,30.37,North,1,0.0,0.0,82,0.00,CLR,SKC,0.00,WeatherDisplay:10.37,2013-03-05 03:45:00,
2013-03-05 04:50:00,26.8,22.0,30.36,North,1,0.0,0.0,82,0.00,CLR,SKC,0.00,WeatherDisplay:10.37,2013-03-05 03:50:00,
2013-03-05 04:55:00,26.8,22.0,30.36,North,1,0.0,0.0,82,0.00,CLR,SKC,0.00,WeatherDisplay:10.37,2013-03-05 03:55:00,
2013-03-05 05:00:00,26.8,22.0,30.36,North,1,0.0,0.0,82,0.00,CLR,SKC,0.00,WeatherDisplay:10.37,2013-03-05 04:00:00,
2013-03-05 05:05:00,26.6,21.8,30.37,North,1,0.0,0.0,82,0.00,CLR,SKC,0.00,WeatherDisplay:10.37,2013-03-05 04:05:00,
2013-03-05 05:10:00,26.4,21.7,30.36,North,1,0.0,0.0,82,0.00,CLR,SKC,0.00,WeatherDisplay:10.37,2013-03-05 04:10:00,
2013-03-05 05:15:00,26.4,21.4,30.36,North,1,0.0,0.0,81,0.00,CLR,SKC,0.00,WeatherDisplay:10.37,2013-03-05 04:15:00,
2013-03-05 05:20:00,26.1,21.3,30.37,North,1,0.0,0.0,82,0.00,CLR,SKC,0.00,WeatherDisplay:10.37,2013-03-05 04:20:00,
2013-03-05 05:25:00,25.9,21.1,30.36,North,1,0.0,0.0,82,0.00,CLR,SKC,0.00,WeatherDisplay:10.37,2013-03-05 04:25:00,
2013-03-05 05:30:00,25.9,21.1,30.36,North,1,0.0,0.0,82,0.00,CLR,SKC,0.00,WeatherDisplay:10.37,2013-03-05 04:30:00,
2013-03-05 05:35:00,25.7,21.0,30.36,North,1,0.0,0.0,82,0.00,CLR,SKC,0.00,WeatherDisplay:10.37,2013-03-05 04:35:00,
2013-03-05 05:40:00,25.7,21.0,30.36,North,1,0.0,0.0,82,0.00,CLR,SKC,0.00,WeatherDisplay:10.37,2013-03-05 04:40:00,
2013-03-05 05:45:00,25.5,20.8,30.36,North,1,0.0,0.0,82,0.00,CLR,SKC,0.00,WeatherDisplay:10.37,2013-03-05 04:45:00,
2013-03-05 05:50:00,25.3,20.6,30.36,North,1,0.0,0.0,82,0.00,CLR,SKC,0.00,WeatherDisplay:10.37,2013-03-05 04:50:00,
2013-03-05 05:55:00,25.5,20.8,30.37,North,1,0.0,0.0,82,0.00,CLR,SKC,0.00,WeatherDisplay:10.37,2013-03-05 04:55:00,
2013-03-05 06:00:00,25.5,20.8,30.36,North,1,0.0,0.0,82,0.00,CLR,SKC,0.00,WeatherDisplay:10.37,2013-03-05 05:00:00,
2013-03-05 06:05:00,25.5,20.8,30.37,North,1,0.0,0.0,82,0.00,CLR,SKC,0.00,WeatherDisplay:10.37,2013-03-05 05:05:00,
2013-03-05 06:10:00,25.5,20.8,30.37,North,1,0.0,0.0,82,0.00,CLR,SKC,0.00,WeatherDisplay:10.37,2013-03-05 05:10:00,
2013-03-05 06:15:00,25.9,21.1,30.36,North,1,0.0,0.0,82,0.00,CLR,SKC,0.00,WeatherDisplay:10.37,2013-03-05 05:15:00,
2013-03-05 06:20:00,25.9,21.1,30.36,North,1,0.0,0.0,82,0.00,CLR,SKC,0.00,WeatherDisplay:10.37,2013-03-05 05:20:00,
2013-03-05 06:25:00,26.1,21.3,30.37,North,1,0.0,0.0,82,0.00,CLR,SKC,0.00,WeatherDisplay:10.37,2013-03-05 05:25:00,
2013-03-05 06:30:00,26.4,21.7,30.37,North,1,0.0,0.0,82,0.00,CLR,SKC,0.00,WeatherDisplay:10.37,2013-03-05 05:30:00,
2013-03-05 06:35:00,26.4,21.7,30.36,North,1,0.0,0.0,82,0.00,CLR,SKC,0.00,WeatherDisplay:10.37,2013-03-05 05:35:00,
2013-03-05 06:40:00,26.4,21.7,30.36,North,1,0.0,0.0,82,0.00,CLR,SKC,0.00,WeatherDisplay:10.37,2013-03-05 05:40:00,
2013-03-05 06:45:00,26.6,21.6,30.36,North,1,0.0,0.0,81,0.00,CLR,SKC,0.00,WeatherDisplay:10.37,2013-03-05 05:45:00,
2013-03-05 06:50:00,27.0,21.9,30.36,North,1,0.0,0.0,81,0.00,CLR,SKC,0.00,WeatherDisplay:10.37,2013-03-05 05:50:00,
2013-03-05 06:55:00,27.5,22.4,30.36,North,1,0.0,0.0,81,0.00,CLR,SKC,0.00,WeatherDisplay:10.37,2013-03-05 05:55:00,
2013-03-05 07:00:00,28.6,23.2,30.36,North,1,0.0,0.0,80,0.00,CLR,SKC,0.00,WeatherDisplay:10.37,2013-03-05 06:00:00,
2013-03-05 07:05:00,29.3,23.6,30.36,North,1,0.0,0.0,79,0.00,CLR,SKC,0.00,WeatherDisplay:10.37,2013-03-05 06:05:00,
2013-03-05 07:10:00,29.8,23.8,30.37,North,1,0.0,0.0,78,0.00,CLR,SKC,0.00,WeatherDisplay:10.37,2013-03-05 06:10:00,
2013-03-05 07:15:00,30.6,24.2,30.38,North,1,0.0,0.0,77,0.00,CLR,SKC,0.00,WeatherDisplay:10.37,2013-03-05 06:15:00,
2013-03-05 07:20:00,31.1,24.1,30.38,North,1,0.0,0.0,75,0.00,CLR,SKC,0.00,WeatherDisplay:10.37,2013-03-05 06:20:00,
2013-03-05 07:25:00,31.6,24.3,30.38,North,1,0.0,0.0,74,0.00,CLR,SKC,0.00,WeatherDisplay:10.37,2013-03-05 06:25:00,
2013-03-05 07:30:00,32.2,24.5,30.38,North,1,0.0,0.0,73,0.00,CLR,SKC,0.00,WeatherDisplay:10.37,2013-03-05 06:30:00,
2013-03-05 07:35:00,32.4,24.3,30.38,North,1,0.0,0.0,72,0.00,CLR,SKC,0.00,WeatherDisplay:10.37,2013-03-05 06:35:00,
2013-03-05 07:40:00,32.7,24.7,30.38,North,1,0.0,0.0,72,0.00,CLR,SKC,0.00,WeatherDisplay:10.37,2013-03-05 06:40:00,
2013-03-05 07:45:00,33.1,24.7,30.38,North,1,0.0,0.0,71,0.00,CLR,SKC,0.00,WeatherDisplay:10.37,2013-03-05 06:45:00,
2013-03-05 07:50:00,33.6,24.9,30.38,North,1,0.0,0.0,70,0.00,CLR,SKC,0.00,WeatherDisplay:10.37,2013-03-05 06:50:00,
2013-03-05 07:55:00,34.3,25.2,30.38,North,1,0.0,0.0,69,0.00,CLR,SKC,0.00,WeatherDisplay:10.37,2013-03-05 06:55:00,
2013-03-05 08:00:00,35.2,25.4,30.38,North,1,0.0,0.0,67,0.00,CLR,SKC,0.00,WeatherDisplay:10.37,2013-03-05 07:00:00,
2013-03-05 08:05:00,35.8,25.2,30.38,North,1,0.0,0.0,65,0.00,CLR,SKC,0.00,WeatherDisplay:10.37,2013-03-05 07:05:00,
2013-03-05 08:10:00,35.8,25.2,30.37,North,1,0.0,0.0,65,0.00,CLR,SKC,0.00,WeatherDisplay:10.37,2013-03-05 07:10:00,
2013-03-05 08:15:00,36.3,25.7,30.37,North,1,0.0,0.0,65,0.00,CLR,SKC,0.00,WeatherDisplay:10.37,2013-03-05 07:15:00,
2013-03-05 08:20:00,36.7,25.3,30.37,North,1,0.0,0.0,63,0.00,CLR,SKC,0.00,WeatherDisplay:10.37,2013-03-05 07:20:00,
2013-03-05 08:25:00,37.0,25.6,30.37,North,1,0.0,0.0,63,0.00,CLR,SKC,0.00,WeatherDisplay:10.37,2013-03-05 07:25:00,
2013-03-05 08:30:00,37.8,25.9,30.37,North,1,0.0,0.0,62,0.00,CLR,SKC,0.00,WeatherDisplay:10.37,2013-03-05 07:30:00,
2013-03-05 08:35:00,38.1,25.4,30.37,North,1,0.0,0.0,60,0.00,CLR,SKC,0.00,WeatherDisplay:10.37,2013-03-05 07:35:00,
2013-03-05 08:40:00,38.5,25.4,30.37,North,1,0.0,0.0,59,0.00,CLR,SKC,0.00,WeatherDisplay:10.37,2013-03-05 07:40:00,
2013-03-05 08:45:00,39.0,25.9,30.37,North,1,0.0,0.0,59,0.00,CLR,SKC,0.00,WeatherDisplay:10.37,2013-03-05 07:45:00,
2013-03-05 08:50:00,39.7,26.2,30.37,North,1,0.0,0.0,58,0.00,CLR,SKC,0.00,WeatherDisplay:10.37,2013-03-05 07:50:00,
2013-03-05 08:55:00,39.9,25.5,30.36,North,1,0.0,0.0,56,0.00,CLR,SKC,0.00,WeatherDisplay:10.37,2013-03-05 07:55:00,
2013-03-05 09:00:00,41.0,26.1,30.37,North,1,0.0,0.0,55,0.00,CLR,SKC,0.00,WeatherDisplay:10.37,2013-03-05 08:00:00,
2013-03-05 09:05:00,41.4,26.4,30.36,North,1,0.0,0.0,55,0.00,CLR,SKC,0.00,WeatherDisplay:10.37,2013-03-05 08:05:00,
2013-03-05 09:10:00,41.5,26.1,30.37,North,1,0.0,0.0,54,0.00,CLR,SKC,0.00,WeatherDisplay:10.37,2013-03-05 08:10:00,
2013-03-05 09:15:00,41.9,26.4,30.37,North,1,0.0,0.0,54,0.00,CLR,SKC,0.00,WeatherDisplay:10.37,2013-03-05 08:15:00,
2013-03-05 09:20:00,42.1,26.2,30.37,North,1,0.0,0.0,53,0.00,CLR,SKC,0.00,WeatherDisplay:10.37,2013-03-05 08:20:00,
2013-03-05 09:25:00,42.6,26.7,30.36,North,1,0.0,0.0,53,0.00,CLR,SKC,0.00,WeatherDisplay:10.37,2013-03-05 08:25:00,
2013-03-05 09:30:00,43.1,26.6,30.36,North,1,0.0,0.0,52,0.00,CLR,SKC,0.00,WeatherDisplay:10.37,2013-03-05 08:30:00,
2013-03-05 09:35:00,43.5,26.6,30.36,North,1,0.0,0.0,51,0.00,CLR,SKC,0.00,WeatherDisplay:10.37,2013-03-05 08:35:00,
2013-03-05 09:40:00,43.7,26.3,30.37,North,1,0.0,0.0,50,0.00,CLR,SKC,0.00,WeatherDisplay:10.37,2013-03-05 08:40:00,
2013-03-05 09:45:00,43.7,25.8,30.37,North,1,0.0,0.0,49,0.00,CLR,SKC,0.00,WeatherDisplay:10.37,2013-03-05 08:45:00,
2013-03-05 09:50:00,43.9,25.9,30.36,North,1,0.0,0.0,49,0.00,CLR,SKC,0.00,WeatherDisplay:10.37,2013-03-05 08:50:00,
2013-03-05 09:55:00,44.4,26.4,30.36,North,1,0.0,0.0,49,0.00,CLR,SKC,0.00,WeatherDisplay:10.37,2013-03-05 08:55:00,
2013-03-05 10:00:00,44.8,25.8,30.36,North,1,0.0,0.0,47,0.00,CLR,SKC,0.00,WeatherDisplay:10.37,2013-03-05 09:00:00,
2013-03-05 10:05:00,44.8,25.8,30.36,North,1,0.0,0.0,47,0.00,CLR,SKC,0.00,WeatherDisplay:10.37,2013-03-05 09:05:00,
2013-03-05 10:10:00,45.0,25.4,30.37,North,1,0.0,0.0,46,0.00,CLR,SKC,0.00,WeatherDisplay:10.37,2013-03-05 09:10:00,
2013-03-05 10:15:00,45.1,25.6,30.36,North,1,0.0,0.0,46,0.00,CLR,SKC,0.00,WeatherDisplay:10.37,2013-03-05 09:15:00,
2013-03-05 10:20:00,45.5,25.9,30.37,North,1,0.0,0.0,46,0.00,CLR,SKC,0.00,WeatherDisplay:10.37,2013-03-05 09:20:00,
2013-03-05 10:25:00,45.3,25.7,30.36,North,1,0.0,0.0,46,0.00,CLR,SKC,0.00,WeatherDisplay:10.37,2013-03-05 09:25:00,
2013-03-05 10:30:00,45.5,26.4,30.36,North,1,0.0,0.0,47,0.00,CLR,SKC,0.00,WeatherDisplay:10.37,2013-03-05 09:30:00,
2013-03-05 10:35:00,45.7,26.6,30.35,North,1,0.0,0.0,47,0.00,CLR,SKC,0.00,WeatherDisplay:10.37,2013-03-05 09:35:00,
2013-03-05 10:40:00,45.7,26.6,30.35,North,1,0.0,0.0,47,0.00,CLR,SKC,0.00,WeatherDisplay:10.37,2013-03-05 09:40:00,
2013-03-05 10:45:00,46.0,26.9,30.35,North,1,0.0,0.0,47,0.00,CLR,SKC,0.00,WeatherDisplay:10.37,2013-03-05 09:45:00,
2013-03-05 10:50:00,46.2,27.1,30.35,North,1,0.0,0.0,47,0.00,CLR,SKC,0.00,WeatherDisplay:10.37,2013-03-05 09:50:00,
2013-03-05 10:55:00,46.2,27.1,30.35,North,1,0.0,0.0,47,0.00,CLR,SKC,0.00,WeatherDisplay:10.37,2013-03-05 09:55:00,
2013-03-05 11:00:00,46.6,27.4,30.35,North,1,0.0,0.0,47,0.00,CLR,SKC,0.00,WeatherDisplay:10.37,2013-03-05 10:00:00,
2013-03-05 11:05:00,46.9,26.7,30.34,North,1,0.0,0.0,45,0.00,CLR,SKC,0.00,WeatherDisplay:10.37,2013-03-05 10:05:00,
2013-03-05 11:10:00,47.1,26.3,30.34,North,1,0.0,0.0,44,0.00,CLR,SKC,0.00,WeatherDisplay:10.37,2013-03-05 10:10:00,
2013-03-05 11:15:00,47.1,25.7,30.34,North,1,0.0,0.0,43,0.00,CLR,SKC,0.00,WeatherDisplay:10.37,2013-03-05 10:15:00,
2013-03-05 11:20:00,47.7,26.2,30.34,North,1,0.0,0.0,43,0.00,CLR,SKC,0.00,WeatherDisplay:10.37,2013-03-05 10:20:00,
2013-03-05 11:25:00,47.8,26.4,30.34,North,1,0.0,0.0,43,0.00,CLR,SKC,0.00,WeatherDisplay:10.37,2013-03-05 10:25:00,
2013-03-05 11:30:00,47.8,26.4,30.34,North,1,0.0,0.0,43,0.00,CLR,SKC,0.00,WeatherDisplay:10.37,2013-03-05 10:30:00,
2013-03-05 11:35:00,47.7,25.7,30.34,North,1,0.0,0.0,42,0.00,CLR,SKC,0.00,WeatherDisplay:10.37,2013-03-05 10:35:00,
2013-03-05 11:40:00,47.7,25.7,30.33,North,1,0.0,0.0,42,0.00,CLR,SKC,0.00,WeatherDisplay:10.37,2013-03-05 10:40:00,
2013-03-05 11:45:00,48.0,26.0,30.33,North,1,0.0,0.0,42,0.00,CLR,SKC,0.00,WeatherDisplay:10.37,2013-03-05 10:45:00,
2013-03-05 11:50:00,48.0,26.0,30.33,North,1,0.0,0.0,42,0.00,CLR,SKC,0.00,WeatherDisplay:10.37,2013-03-05 10:50:00,
2013-03-05 11:55:00,48.4,26.3,30.33,North,1,0.0,0.0,42,0.00,CLR,SKC,0.00,WeatherDisplay:10.37,2013-03-05 10:55:00,
2013-03-05 12:00:00,48.7,26.6,30.32,North,1,0.0,0.0,42,0.00,CLR,SKC,0.00,WeatherDisplay:10.37,2013-03-05 11:00:00,
2013-03-05 12:05:00,48.9,26.8,30.32,North,1,0.0,0.0,42,0.00,CLR,SKC,0.00,WeatherDisplay:10.37,2013-03-05 11:05:00,
2013-03-05 12:10:00,48.9,26.2,30.32,North,1,0.0,0.0,41,0.00,CLR,SKC,0.00,WeatherDisplay:10.37,2013-03-05 11:10:00,
2013-03-05 12:15:00,49.3,27.1,30.32,North,1,0.0,0.0,42,0.00,CLR,SKC,0.00,WeatherDisplay:10.37,2013-03-05 11:15:00,
2013-03-05 12:20:00,49.3,26.0,30.32,North,1,0.0,0.0,40,0.00,CLR,SKC,0.00,WeatherDisplay:10.37,2013-03-05 11:20:00,
2013-03-05 12:25:00,49.3,26.0,30.31,North,1,0.0,0.0,40,0.00,CLR,SKC,0.00,WeatherDisplay:10.37,2013-03-05 11:25:00,
2013-03-05 12:30:00,49.3,26.0,30.31,North,1,0.0,0.0,40,0.00,CLR,SKC,0.00,WeatherDisplay:10.37,2013-03-05 11:30:00,
2013-03-05 12:35:00,49.6,26.3,30.31,North,1,0.0,0.0,40,0.00,CLR,SKC,0.00,WeatherDisplay:10.37,2013-03-05 11:35:00,
2013-03-05 12:40:00,49.8,25.8,30.31,North,1,0.0,0.0,39,0.00,CLR,SKC,0.00,WeatherDisplay:10.37,2013-03-05 11:40:00,
2013-03-05 12:45:00,49.8,25.8,30.30,North,1,0.0,0.0,39,0.00,CLR,SKC,0.00,WeatherDisplay:10.37,2013-03-05 11:45:00,
2013-03-05 12:50:00,50.2,26.1,30.30,North,1,0.0,0.0,39,0.00,CLR,SKC,0.00,WeatherDisplay:10.37,2013-03-05 11:50:00,
2013-03-05 12:55:00,50.5,26.5,30.30,North,1,0.0,0.0,39,0.00,CLR,SKC,0.00,WeatherDisplay:10.37,2013-03-05 11:55:00,
2013-03-05 13:00:00,50.5,25.2,30.29,North,1,0.0,0.0,37,0.00,CLR,SKC,0.00,WeatherDisplay:10.37,2013-03-05 12:00:00,
2013-03-05 13:05:00,50.7,25.4,30.29,North,1,0.0,0.0,37,0.00,CLR,SKC,0.00,WeatherDisplay:10.37,2013-03-05 12:05:00,
2013-03-05 13:10:00,51.1,25.7,30.29,North,1,0.0,0.0,37,0.00,CLR,SKC,0.00,WeatherDisplay:10.37,2013-03-05 12:10:00,
2013-03-05 13:15:00,51.1,25.0,30.28,North,1,0.0,0.0,36,0.00,CLR,SKC,0.00,WeatherDisplay:10.37,2013-03-05 12:15:00,
2013-03-05 13:20:00,51.3,25.2,30.29,North,1,0.0,0.0,36,0.00,CLR,SKC,0.00,WeatherDisplay:10.37,2013-03-05 12:20:00,
2013-03-05 13:25:00,51.4,24.0,30.29,North,1,0.0,0.0,34,0.00,CLR,SKC,0.00,WeatherDisplay:10.37,2013-03-05 12:25:00,
2013-03-05 13:30:00,51.4,24.0,30.28,North,1,0.0,0.0,34,0.00,CLR,SKC,0.00,WeatherDisplay:10.37,2013-03-05 12:30:00,
2013-03-05 13:35:00,51.1,23.7,30.28,North,1,0.0,0.0,34,0.00,CLR,SKC,0.00,WeatherDisplay:10.37,2013-03-05 12:35:00,
2013-03-05 13:40:00,51.1,23.7,30.27,North,1,0.0,0.0,34,0.00,CLR,SKC,0.00,WeatherDisplay:10.37,2013-03-05 12:40:00,
2013-03-05 13:45:00,51.4,24.0,30.27,North,1,0.0,0.0,34,0.00,CLR,SKC,0.00,WeatherDisplay:10.37,2013-03-05 12:45:00,
2013-03-05 13:50:00,51.6,24.1,30.27,North,1,0.0,0.0,34,0.00,CLR,SKC,0.00,WeatherDisplay:10.37,2013-03-05 12:50:00,
2013-03-05 13:55:00,51.4,23.3,30.27,North,1,0.0,0.0,33,0.00,CLR,SKC,0.00,WeatherDisplay:10.37,2013-03-05 12:55:00,
2013-03-05 14:00:00,51.6,24.1,30.27,North,1,0.0,0.0,34,0.00,CLR,SKC,0.00,WeatherDisplay:10.37,2013-03-05 13:00:00,
2013-03-05 14:05:00,51.4,24.0,30.26,North,1,0.0,0.0,34,0.00,CLR,SKC,0.00,WeatherDisplay:10.37,2013-03-05 13:05:00,
2013-03-05 14:10:00,51.4,24.7,30.26,North,1,0.0,0.0,35,0.00,CLR,SKC,0.00,WeatherDisplay:10.37,2013-03-05 13:10:00,
2013-03-05 14:15:00,51.6,24.8,30.26,North,1,0.0,0.0,35,0.00,CLR,SKC,0.00,WeatherDisplay:10.37,2013-03-05 13:15:00,
2013-03-05 14:20:00,51.6,24.8,30.26,North,1,0.0,0.0,35,0.00,CLR,SKC,0.00,WeatherDisplay:10.37,2013-03-05 13:20:00,
2013-03-05 14:25:00,51.6,24.8,30.26,North,1,0.0,0.0,35,0.00,CLR,SKC,0.00,WeatherDisplay:10.37,2013-03-05 13:25:00,
2013-03-05 14:30:00,51.8,24.3,30.26,North,1,0.0,0.0,34,0.00,CLR,SKC,0.00,WeatherDisplay:10.37,2013-03-05 13:30:00,
2013-03-05 14:35:00,51.6,24.1,30.26,North,1,0.0,0.0,34,0.00,CLR,SKC,0.00,WeatherDisplay:10.37,2013-03-05 13:35:00,
2013-03-05 14:40:00,52.0,24.4,30.26,North,1,0.0,0.0,34,0.00,CLR,SKC,0.00,WeatherDisplay:10.37,2013-03-05 13:40:00,
2013-03-05 14:45:00,51.6,24.1,30.26,North,1,0.0,0.0,34,0.00,CLR,SKC,0.00,WeatherDisplay:10.37,2013-03-05 13:45:00,
2013-03-05 14:50:00,52.0,25.1,30.26,North,1,0.0,0.0,35,0.00,CLR,SKC,0.00,WeatherDisplay:10.37,2013-03-05 13:50:00,
2013-03-05 14:55:00,51.6,24.8,30.26,North,1,0.0,0.0,35,0.00,CLR,SKC,0.00,WeatherDisplay:10.37,2013-03-05 13:55:00,
2013-03-05 15:00:00,51.6,24.8,30.25,North,1,0.0,0.0,35,0.00,CLR,SKC,0.00,WeatherDisplay:10.37,2013-03-05 14:00:00,
2013-03-05 15:05:00,51.6,25.5,30.25,North,1,0.0,0.0,36,0.00,CLR,SKC,0.00,WeatherDisplay:10.37,2013-03-05 14:05:00,
2013-03-05 15:10:00,51.6,25.5,30.25,North,1,0.0,0.0,36,0.00,CLR,SKC,0.00,WeatherDisplay:10.37,2013-03-05 14:10:00,
2013-03-05 15:15:00,52.0,25.1,30.25,North,1,0.0,0.0,35,0.00,CLR,SKC,0.00,WeatherDisplay:10.37,2013-03-05 14:15:00,
2013-03-05 15:20:00,52.0,25.1,30.25,North,1,0.0,0.0,35,0.00,CLR,SKC,0.00,WeatherDisplay:10.37,2013-03-05 14:20:00,
2013-03-05 15:25:00,52.0,25.1,30.25,North,1,0.0,0.0,35,0.00,CLR,SKC,0.00,WeatherDisplay:10.37,2013-03-05 14:25:00,
2013-03-05 15:30:00,51.6,24.8,30.25,North,1,0.0,0.0,35,0.00,CLR,SKC,0.00,WeatherDisplay:10.37,2013-03-05 14:30:00,
2013-03-05 15:35:00,51.4,25.3,30.24,North,1,0.0,0.0,36,0.00,CLR,SKC,0.00,WeatherDisplay:10.37,2013-03-05 14:35:00,
2013-03-05 15:40:00,51.3,25.2,30.24,North,1,0.0,0.0,36,0.00,CLR,SKC,0.00,WeatherDisplay:10.37,2013-03-05 14:40:00,
2013-03-05 15:45:00,51.1,25.0,30.24,North,1,0.0,0.0,36,0.00,CLR,SKC,0.00,WeatherDisplay:10.37,2013-03-05 14:45:00,
2013-03-05 15:50:00,50.9,25.5,30.23,North,1,0.0,0.0,37,0.00,CLR,SKC,0.00,WeatherDisplay:10.37,2013-03-05 14:50:00,
2013-03-05 15:55:00,50.9,24.9,30.23,North,1,0.0,0.0,36,0.00,CLR,SKC,0.00,WeatherDisplay:10.37,2013-03-05 14:55:00,
2013-03-05 16:00:00,50.9,24.9,30.23,North,1,0.0,0.0,36,0.00,CLR,SKC,0.00,WeatherDisplay:10.37,2013-03-05 15:00:00,
2013-03-05 16:05:00,50.9,24.9,30.23,North,1,0.0,0.0,36,0.00,CLR,SKC,0.00,WeatherDisplay:10.37,2013-03-05 15:05:00,
2013-03-05 16:10:00,50.7,24.7,30.23,North,1,0.0,0.0,36,0.00,CLR,SKC,0.00,WeatherDisplay:10.37,2013-03-05 15:10:00,
2013-03-05 16:15:00,50.7,24.7,30.22,North,1,0.0,0.0,36,0.00,CLR,SKC,0.00,WeatherDisplay:10.37,2013-03-05 15:15:00,
2013-03-05 16:20:00,50.7,25.4,30.22,North,1,0.0,0.0,37,0.00,CLR,SKC,0.00,WeatherDisplay:10.37,2013-03-05 15:20:00,
2013-03-05 16:25:00,50.5,25.2,30.22,North,1,0.0,0.0,37,0.00,CLR,SKC,0.00,WeatherDisplay:10.37,2013-03-05 15:25:00,
2013-03-05 16:30:00,50.4,25.0,30.22,North,1,0.0,0.0,37,0.00,CLR,SKC,0.00,WeatherDisplay:10.37,2013-03-05 15:30:00,
2013-03-05 16:35:00,50.2,25.5,30.21,North,1,0.0,0.0,38,0.00,CLR,SKC,0.00,WeatherDisplay:10.37,2013-03-05 15:35:00,
2013-03-05 16:40:00,49.8,24.6,30.22,North,1,0.0,0.0,37,0.00,CLR,SKC,0.00,WeatherDisplay:10.37,2013-03-05 15:40:00,
2013-03-05 16:45:00,49.6,24.4,30.22,North,1,0.0,0.0,37,0.00,CLR,SKC,0.00,WeatherDisplay:10.37,2013-03-05 15:45:00,
2013-03-05 16:50:00,49.3,24.7,30.22,North,1,0.0,0.0,38,0.00,CLR,SKC,0.00,WeatherDisplay:10.37,2013-03-05 15:50:00,
2013-03-05 16:55:00,49.3,24.7,30.22,North,1,0.0,0.0,38,0.00,CLR,SKC,0.00,WeatherDisplay:10.37,2013-03-05 15:55:00,
2013-03-05 17:00:00,49.1,24.6,30.22,North,1,0.0,0.0,38,0.00,CLR,SKC,0.00,WeatherDisplay:10.37,2013-03-05 16:00:00,
2013-03-05 17:05:00,48.9,25.0,30.22,North,1,0.0,0.0,39,0.00,CLR,SKC,0.00,WeatherDisplay:10.37,2013-03-05 16:05:00,
2013-03-05 17:10:00,48.6,24.7,30.21,North,1,0.0,0.0,39,0.00,CLR,SKC,0.00,WeatherDisplay:10.37,2013-03-05 16:10:00,
2013-03-05 17:15:00,48.6,24.7,30.21,North,1,0.0,0.0,39,0.00,CLR,SKC,0.00,WeatherDisplay:10.37,2013-03-05 16:15:00,
2013-03-05 17:20:00,47.8,24.7,30.21,North,1,0.0,0.0,40,0.00,CLR,SKC,0.00,WeatherDisplay:10.37,2013-03-05 16:20:00,
2013-03-05 17:25:00,47.3,24.2,30.21,North,1,0.0,0.0,40,0.00,CLR,SKC,0.00,WeatherDisplay:10.37,2013-03-05 16:25:00,
2013-03-05 17:30:00,46.9,24.4,30.22,North,1,0.0,0.0,41,0.00,CLR,SKC,0.00,WeatherDisplay:10.37,2013-03-05 16:30:00,
2013-03-05 17:35:00,46.4,24.5,30.21,North,1,0.0,0.0,42,0.00,CLR,SKC,0.00,WeatherDisplay:10.37,2013-03-05 16:35:00,
2013-03-05 17:40:00,45.7,24.4,30.21,North,1,0.0,0.0,43,0.00,CLR,SKC,0.00,WeatherDisplay:10.37,2013-03-05 16:40:00,
2013-03-05 17:45:00,45.5,24.8,30.21,North,1,0.0,0.0,44,0.00,CLR,SKC,0.00,WeatherDisplay:10.37,2013-03-05 16:45:00,
2013-03-05 17:50:00,45.0,24.3,30.21,North,1,0.0,0.0,44,0.00,CLR,SKC,0.00,WeatherDisplay:10.37,2013-03-05 16:50:00,
2013-03-05 17:55:00,44.4,24.4,30.20,North,1,0.0,0.0,45,0.00,CLR,SKC,0.00,WeatherDisplay:10.37,2013-03-05 16:55:00,
2013-03-05 18:00:00,44.2,24.7,30.21,North,1,0.0,0.0,46,0.00,CLR,SKC,0.00,WeatherDisplay:10.37,2013-03-05 17:00:00,
2013-03-05 18:05:00,43.7,24.2,30.21,North,1,0.0,0.0,46,0.00,CLR,SKC,0.00,WeatherDisplay:10.37,2013-03-05 17:05:00,
2013-03-05 18:10:00,43.3,24.4,30.20,North,1,0.0,0.0,47,0.00,CLR,SKC,0.00,WeatherDisplay:10.37,2013-03-05 17:10:00,
2013-03-05 18:15:00,43.2,24.3,30.20,North,1,0.0,0.0,47,0.00,CLR,SKC,0.00,WeatherDisplay:10.37,2013-03-05 17:15:00,
2013-03-05 18:20:00,42.6,24.3,30.20,North,1,0.0,0.0,48,0.00,CLR,SKC,0.00,WeatherDisplay:10.37,2013-03-05 17:20:00,
2013-03-05 18:25:00,42.4,24.1,30.20,North,1,0.0,0.0,48,0.00,CLR,SKC,0.00,WeatherDisplay:10.37,2013-03-05 17:25:00,
2013-03-05 18:30:00,42.1,24.3,30.20,North,1,0.0,0.0,49,0.00,CLR,SKC,0.00,WeatherDisplay:10.37,2013-03-05 17:30:00,
2013-03-05 18:35:00,41.7,23.9,30.20,North,1,0.0,0.0,49,0.00,CLR,SKC,0.00,WeatherDisplay:10.37,2013-03-05 17:35:00,
2013-03-05 18:40:00,41.2,23.9,30.20,North,1,0.0,0.0,50,0.00,CLR,SKC,0.00,WeatherDisplay:10.37,2013-03-05 17:40:00,
2013-03-05 18:45:00,40.8,24.1,30.20,North,1,0.0,0.0,51,0.00,CLR,SKC,0.00,WeatherDisplay:10.37,2013-03-05 17:45:00,
2013-03-05 18:50:00,40.6,24.4,30.20,North,1,0.0,0.0,52,0.00,CLR,SKC,0.00,WeatherDisplay:10.37,2013-03-05 17:50:00,
2013-03-05 18:55:00,40.6,24.4,30.20,North,1,0.0,0.0,52,0.00,CLR,SKC,0.00,WeatherDisplay:10.37,2013-03-05 17:55:00,
2013-03-05 19:00:00,40.5,24.7,30.20,North,1,0.0,0.0,53,0.00,CLR,SKC,0.00,WeatherDisplay:10.37,2013-03-05 18:00:00,
2013-03-05 19:05:00,40.5,25.1,30.20,North,1,0.0,0.0,54,0.00,CLR,SKC,0.00,WeatherDisplay:10.37,2013-03-05 18:05:00,
2013-03-05 19:10:00,40.3,24.9,30.20,North,1,0.0,0.0,54,0.00,CLR,SKC,0.00,WeatherDisplay:10.37,2013-03-05 18:10:00,
2013-03-05 19:15:00,40.1,25.2,30.20,North,1,0.0,0.0,55,0.00,CLR,SKC,0.00,WeatherDisplay:10.37,2013-03-05 18:15:00,
2013-03-05 19:20:00,40.3,25.4,30.20,North,1,0.0,0.0,55,0.00,CLR,SKC,0.00,WeatherDisplay:10.37,2013-03-05 18:20:00,
2013-03-05 19:25:00,40.3,25.4,30.20,North,1,0.0,0.0,55,0.00,CLR,SKC,0.00,WeatherDisplay:10.37,2013-03-05 18:25:00,
2013-03-05 19:30:00,40.1,25.6,30.20,North,1,0.0,0.0,56,0.00,CLR,SKC,0.00,WeatherDisplay:10.37,2013-03-05 18:30:00,
2013-03-05 19:35:00,39.9,25.5,30.20,North,1,0.0,0.0,56,0.00,CLR,SKC,0.00,WeatherDisplay:10.37,2013-03-05 18:35:00,
2013-03-05 19:40:00,39.9,25.5,30.20,North,1,0.0,0.0,56,0.00,CLR,SKC,0.00,WeatherDisplay:10.37,2013-03-05 18:40:00,
2013-03-05 19:45:00,39.9,25.9,30.20,North,1,0.0,0.0,57,0.00,CLR,SKC,0.00,WeatherDisplay:10.37,2013-03-05 18:45:00,
2013-03-05 19:50:00,39.6,26.0,30.20,North,1,0.0,0.0,58,0.00,CLR,SKC,0.00,WeatherDisplay:10.37,2013-03-05 18:50:00,
2013-03-05 19:55:00,39.6,26.0,30.20,North,1,0.0,0.0,58,0.00,CLR,SKC,0.00,WeatherDisplay:10.37,2013-03-05 18:55:00,
2013-03-05 20:00:00,39.7,26.6,30.20,North,1,0.0,0.0,59,0.00,CLR,SKC,0.00,WeatherDisplay:10.37,2013-03-05 19:00:00,
2013-03-05 20:05:00,39.6,26.4,30.20,North,1,0.0,0.0,59,0.00,CLR,SKC,0.00,WeatherDisplay:10.37,2013-03-05 19:05:00,
2013-03-05 20:10:00,39.4,26.2,30.20,North,1,0.0,0.0,59,0.00,CLR,SKC,0.00,WeatherDisplay:10.37,2013-03-05 19:10:00,
2013-03-05 20:15:00,39.4,26.6,30.20,North,1,0.0,0.0,60,0.00,CLR,SKC,0.00,WeatherDisplay:10.37,2013-03-05 19:15:00,
2013-03-05 20:20:00,39.4,26.6,30.20,North,1,0.0,0.0,60,0.00,CLR,SKC,0.00,WeatherDisplay:10.37,2013-03-05 19:20:00,
2013-03-05 20:25:00,39.4,26.6,30.20,North,1,0.0,0.0,60,0.00,CLR,SKC,0.00,WeatherDisplay:10.37,2013-03-05 19:25:00,
2013-03-05 20:30:00,39.4,27.0,30.19,North,1,0.0,0.0,61,0.00,CLR,SKC,0.00,WeatherDisplay:10.37,2013-03-05 19:30:00,
2013-03-05 20:35:00,39.4,27.0,30.19,North,1,0.0,0.0,61,0.00,CLR,SKC,0.00,WeatherDisplay:10.37,2013-03-05 19:35:00,
2013-03-05 20:40:00,39.2,26.9,30.19,North,1,0.0,0.0,61,0.00,CLR,SKC,0.00,WeatherDisplay:10.37,2013-03-05 19:40:00,
2013-03-05 20:45:00,39.4,27.0,30.19,North,1,0.0,0.0,61,0.00,CLR,SKC,0.00,WeatherDisplay:10.37,2013-03-05 19:45:00,
2013-03-05 20:50:00,39.4,27.4,30.19,North,1,0.0,0.0,62,0.00,CLR,SKC,0.00,WeatherDisplay:10.37,2013-03-05 19:50:00,
2013-03-05 20:55:00,39.6,27.6,30.19,North,1,0.0,0.0,62,0.00,CLR,SKC,0.00,WeatherDisplay:10.37,2013-03-05 19:55:00,
2013-03-05 21:00:00,39.6,27.6,30.19,North,1,0.0,0.0,62,0.00,CLR,SKC,0.00,WeatherDisplay:10.37,2013-03-05 20:00:00,
2013-03-05 21:05:00,39.7,27.8,30.19,North,1,0.0,0.0,62,0.00,CLR,SKC,0.00,WeatherDisplay:10.37,2013-03-05 20:05:00,
2013-03-05 21:10:00,39.6,27.6,30.18,North,1,0.0,0.0,62,0.00,CLR,SKC,0.00,WeatherDisplay:10.37,2013-03-05 20:10:00,
2013-03-05 21:15:00,39.6,27.6,30.19,North,1,0.0,0.0,62,0.00,CLR,SKC,0.00,WeatherDisplay:10.37,2013-03-05 20:15:00,
2013-03-05 21:20:00,39.4,27.4,30.18,North,1,0.0,0.0,62,0.00,CLR,SKC,0.00,WeatherDisplay:10.37,2013-03-05 20:20:00,
2013-03-05 21:25:00,39.4,27.4,30.18,North,1,0.0,0.0,62,0.00,CLR,SKC,0.00,WeatherDisplay:10.37,2013-03-05 20:25:00,
2013-03-05 21:30:00,39.6,27.6,30.18,North,1,0.0,0.0,62,0.00,CLR,SKC,0.00,WeatherDisplay:10.37,2013-03-05 20:30:00,
2013-03-05 21:35:00,39.7,27.8,30.18,North,1,0.0,0.0,62,0.00,CLR,SKC,0.00,WeatherDisplay:10.37,2013-03-05 20:35:00,
2013-03-05 21:40:00,39.9,27.5,30.18,North,1,0.0,0.0,61,0.00,CLR,SKC,0.00,WeatherDisplay:10.37,2013-03-05 20:40:00,
2013-03-05 21:45:00,39.9,27.5,30.18,North,1,0.0,0.0,61,0.00,CLR,SKC,0.00,WeatherDisplay:10.37,2013-03-05 20:45:00,
2013-03-05 21:50:00,39.9,27.5,30.18,North,1,0.0,0.0,61,0.00,CLR,SKC,0.00,WeatherDisplay:10.37,2013-03-05 20:50:00,
2013-03-05 21:55:00,39.6,27.2,30.18,North,1,0.0,0.0,61,0.00,CLR,SKC,0.00,WeatherDisplay:10.37,2013-03-05 20:55:00,
2013-03-05 22:00:00,39.4,27.0,30.18,North,1,0.0,0.0,61,0.00,CLR,SKC,0.00,WeatherDisplay:10.37,2013-03-05 21:00:00,
2013-03-05 22:05:00,39.4,27.0,30.18,North,1,0.0,0.0,61,0.00,CLR,SKC,0.00,WeatherDisplay:10.37,2013-03-05 21:05:00,
2013-03-05 22:10:00,39.4,27.0,30.18,North,1,0.0,0.0,61,0.00,CLR,SKC,0.00,WeatherDisplay:10.37,2013-03-05 21:10:00,
2013-03-05 22:15:00,39.4,27.0,30.18,North,1,0.0,0.0,61,0.00,CLR,SKC,0.00,WeatherDisplay:10.37,2013-03-05 21:15:00,
2013-03-05 22:20:00,39.4,27.0,30.18,North,1,0.0,0.0,61,0.00,CLR,SKC,0.00,WeatherDisplay:10.37,2013-03-05 21:20:00,
2013-03-05 22:25:00,39.4,27.0,30.17,North,1,0.0,0.0,61,0.00,CLR,SKC,0.00,WeatherDisplay:10.37,2013-03-05 21:25:00,
2013-03-05 22:30:00,39.0,26.7,30.17,North,1,0.0,0.0,61,0.00,CLR,SKC,0.00,WeatherDisplay:10.37,2013-03-05 21:30:00,
2013-03-05 22:35:00,38.8,26.5,30.17,North,1,0.0,0.0,61,0.00,CLR,SKC,0.00,WeatherDisplay:10.37,2013-03-05 21:35:00,
2013-03-05 22:40:00,38.7,26.8,30.17,North,1,0.0,0.0,62,0.00,CLR,SKC,0.00,WeatherDisplay:10.37,2013-03-05 21:40:00,
2013-03-05 22:45:00,38.5,26.6,30.17,North,1,0.0,0.0,62,0.00,CLR,SKC,0.00,WeatherDisplay:10.37,2013-03-05 21:45:00,
2013-03-05 22:50:00,38.5,26.6,30.17,North,1,0.0,0.0,62,0.00,CLR,SKC,0.00,WeatherDisplay:10.37,2013-03-05 21:50:00,
2013-03-05 22:55:00,38.3,26.4,30.17,North,1,0.0,0.0,62,0.00,CLR,SKC,0.00,WeatherDisplay:10.37,2013-03-05 21:55:00,
2013-03-05 23:00:00,38.5,26.6,30.17,North,1,0.0,0.0,62,0.00,CLR,SKC,0.00,WeatherDisplay:10.37,2013-03-05 22:00:00,
2013-03-05 23:05:00,38.5,26.6,30.17,North,1,0.0,0.0,62,0.00,CLR,SKC,0.00,WeatherDisplay:10.37,2013-03-05 22:05:00,
2013-03-05 23:10:00,38.5,26.6,30.16,North,1,0.0,0.0,62,0.00,CLR,SKC,0.00,WeatherDisplay:10.37,2013-03-05 22:10:00,
2013-03-05 23:15:00,38.5,26.6,30.16,North,1,0.0,0.0,62,0.00,CLR,SKC,0.00,WeatherDisplay:10.37,2013-03-05 22:15:00,
2013-03-05 23:20:00,38.5,26.6,30.16,North,1,0.0,0.0,62,0.00,CLR,SKC,0.00,WeatherDisplay:10.37,2013-03-05 22:20:00,
2013-03-05 23:25:00,38.5,27.0,30.16,North,1,0.0,0.0,63,0.00,CLR,SKC,0.00,WeatherDisplay:10.37,2013-03-05 22:25:00,
2013-03-05 23:30:00,38.5,27.0,30.15,North,1,0.0,0.0,63,0.00,CLR,SKC,0.00,WeatherDisplay:10.37,2013-03-05 22:30:00,
2013-03-05 23:35:00,38.5,27.0,30.16,North,1,0.0,0.0,63,0.00,CLR,SKC,0.00,WeatherDisplay:10.37,2013-03-05 22:35:00,
2013-03-05 23:40:00,38.3,26.8,30.15,North,1,0.0,0.0,63,0.00,CLR,SKC,0.00,WeatherDisplay:10.37,2013-03-05 22:40:00,
2013-03-05 23:45:00,38.1,26.6,30.15,North,1,0.0,0.0,63,0.00,CLR,SKC,0.00,WeatherDisplay:10.37,2013-03-05 22:45:00,
2013-03-05 23:50:00,37.9,26.5,30.15,North,1,0.0,0.0,63,0.00,CLR,SKC,0.00,WeatherDisplay:10.37,2013-03-05 22:50:00,
2013-03-05 23:55:00,37.6,26.5,30.16,North,1,0.0,0.0,64,0.00,CLR,SKC,0.00,WeatherDisplay:10.37,2013-03-05 22:55:00,